createdAt,value
2018-09-11T00:02:11.507Z,2.93
2018-09-11T00:04:43.125Z,2.83
2018-09-11T00:07:13.898Z,3.30
2018-09-11T00:09:44.610Z,3.13
2018-09-11T00:15:26.977Z,3.80
2018-09-11T00:17:58.137Z,3.40
2018-09-11T00:20:29.713Z,2.80
2018-09-11T00:23:03.798Z,3.33
2018-09-11T00:25:38.919Z,3.10
2018-09-11T00:28:11.649Z,2.80
2018-09-11T00:30:42.235Z,3.37
2018-09-11T00:33:18.029Z,3.57
2018-09-11T00:35:48.389Z,3.60
2018-09-11T00:38:19.327Z,3.60
2018-09-11T00:40:51.703Z,3.00
2018-09-11T01:00:46.810Z,3.33
2018-09-11T01:03:17.429Z,3.03
2018-09-11T01:05:48.603Z,3.43
2018-09-11T01:08:19.462Z,3.50
2018-09-11T01:10:50.483Z,3.80
2018-09-11T01:13:23.220Z,3.43
2018-09-11T01:15:54.645Z,3.20
2018-09-11T01:18:26.038Z,2.93
2018-09-11T01:21:08.362Z,3.40
2018-09-11T01:23:39.153Z,3.83
2018-09-11T01:26:10.272Z,3.30
2018-09-11T01:28:41.237Z,3.23
2018-09-11T01:37:11.125Z,4.00
2018-09-11T01:39:42.763Z,3.93
2018-09-11T01:42:14.405Z,3.57
2018-09-11T01:47:35.418Z,3.80
2018-09-11T01:50:06.757Z,3.60
2018-09-11T01:55:31.969Z,4.13
2018-09-11T01:58:09.609Z,3.37
2018-09-11T02:00:40.172Z,3.67
2018-09-11T02:03:10.933Z,3.70
2018-09-11T02:05:49.781Z,3.10
2018-09-11T02:08:20.272Z,4.17
2018-09-11T02:10:51.175Z,3.70
2018-09-11T02:13:21.970Z,3.80
2018-09-11T02:21:44.594Z,4.07
2018-09-11T02:24:15.525Z,4.00
2018-09-11T02:26:50.343Z,3.70
2018-09-11T02:29:22.529Z,4.13
2018-09-11T02:31:52.573Z,3.80
2018-09-11T02:34:22.655Z,3.97
2018-09-11T02:37:06.527Z,4.53
2018-09-11T02:39:36.894Z,4.03
2018-09-11T02:42:07.347Z,4.20
2018-09-11T02:44:37.460Z,3.87
2018-09-11T02:47:13.178Z,3.97
2018-09-11T02:49:43.388Z,3.60
2018-09-11T02:52:13.751Z,4.20
2018-09-11T02:54:44.389Z,3.90
2018-09-11T02:57:16.287Z,4.37
2018-09-11T03:06:30.090Z,4.10
2018-09-11T03:09:06.815Z,4.30
2018-09-11T03:11:37.436Z,4.80
2018-09-11T03:14:21.889Z,4.67
2018-09-11T03:20:00.882Z,4.47
2018-09-11T03:22:31.523Z,5.17
2018-09-11T03:25:01.672Z,4.03
2018-09-11T03:27:32.259Z,4.33
2018-09-11T03:30:02.687Z,4.47
2018-09-11T03:32:33.120Z,4.47
2018-09-11T03:35:04.038Z,4.70
2018-09-11T03:37:43.100Z,4.20
2018-09-11T03:40:15.069Z,4.43
2018-09-11T03:42:46.785Z,4.33
2018-09-11T04:09:10.031Z,4.53
2018-09-11T04:11:40.469Z,4.40
2018-09-11T04:14:10.497Z,4.43
2018-09-11T04:19:35.190Z,4.60
2018-09-11T04:22:04.896Z,4.40
2018-09-11T04:24:34.434Z,4.47
2018-09-11T04:27:04.170Z,4.70
2018-09-11T04:29:43.821Z,5.03
2018-09-11T04:46:52.240Z,5.13
2018-09-11T04:49:23.053Z,5.63
2018-09-11T04:51:54.018Z,4.83
2018-09-11T05:12:45.640Z,5.17
2018-09-11T05:15:16.804Z,5.00
2018-09-11T05:17:47.354Z,4.83
2018-09-11T05:46:21.282Z,5.63
2018-09-11T05:50:25.030Z,5.27
2018-09-11T06:03:35.803Z,5.70
2018-09-11T06:06:10.590Z,5.80
2018-09-11T06:22:46.159Z,4.63
2018-09-11T06:30:58.745Z,4.63
2018-09-11T06:33:35.568Z,4.37
2018-09-11T06:36:14.102Z,5.03
2018-09-11T06:52:34.054Z,4.47
2018-09-11T06:55:05.231Z,4.30
2018-09-11T06:57:36.883Z,4.50
2018-09-11T07:00:06.997Z,4.37
2018-09-11T07:02:37.916Z,4.83
2018-09-11T07:05:08.612Z,5.00
2018-09-11T07:07:38.449Z,4.57
2018-09-11T07:10:10.864Z,3.67
2018-09-11T07:12:49.684Z,4.07
2018-09-11T07:15:24.145Z,4.30
2018-09-11T07:17:59.713Z,3.70
2018-09-11T07:20:30.649Z,4.10
2018-09-11T07:23:00.810Z,3.87
2018-09-11T07:25:32.781Z,3.83
2018-09-11T07:28:04.024Z,4.03
2018-09-11T07:30:35.268Z,3.50
2018-09-11T07:33:06.581Z,3.27
2018-09-11T07:35:36.588Z,3.30
2018-09-11T07:38:07.934Z,3.00
2018-09-11T07:40:37.754Z,3.10
2018-09-11T07:43:09.510Z,2.93
2018-09-11T07:45:42.396Z,2.40
2018-09-11T07:48:12.827Z,2.43
2018-09-11T07:50:42.699Z,2.43
2018-09-11T07:53:27.151Z,2.67
2018-09-11T07:55:57.407Z,2.17
2018-09-11T07:58:29.101Z,2.50
2018-09-11T08:01:13.791Z,2.30
2018-09-11T08:03:52.804Z,2.40
2018-09-11T08:06:22.811Z,2.17
2018-09-11T08:08:52.944Z,2.13
2018-09-11T08:11:23.964Z,2.17
2018-09-11T08:13:53.666Z,2.33
2018-09-11T08:16:25.941Z,2.50
2018-09-11T08:18:58.594Z,2.57
2018-09-11T08:21:29.755Z,2.80
2018-09-11T08:24:02.785Z,2.17
2018-09-11T08:26:33.971Z,2.40
2018-09-11T08:29:05.039Z,2.23
2018-09-11T08:31:35.922Z,2.00
2018-09-11T08:34:06.624Z,2.40
2018-09-11T08:36:37.430Z,2.30
2018-09-11T08:39:10.392Z,2.37
2018-09-11T08:41:40.827Z,2.40
2018-09-11T08:47:21.707Z,2.43
2018-09-11T08:49:59.278Z,2.47
2018-09-11T08:52:30.078Z,2.37
2018-09-11T08:55:02.424Z,2.20
2018-09-11T08:57:32.360Z,2.10
2018-09-11T09:00:02.324Z,2.40
2018-09-11T09:02:32.421Z,2.30
2018-09-11T09:05:02.168Z,2.73
2018-09-11T09:07:31.822Z,2.30
2018-09-11T09:10:03.732Z,2.40
2018-09-11T09:12:33.384Z,2.20
2018-09-11T09:15:03.588Z,2.43
2018-09-11T09:17:33.381Z,2.27
2018-09-11T09:20:07.659Z,2.70
2018-09-11T09:22:38.139Z,2.33
2018-09-11T09:25:08.992Z,2.30
2018-09-11T09:27:40.000Z,2.50
2018-09-11T09:30:10.003Z,2.90
2018-09-11T09:32:41.508Z,1.93
2018-09-11T09:35:11.320Z,2.27
2018-09-11T09:37:42.106Z,2.50
2018-09-11T09:40:12.175Z,2.40
2018-09-11T09:42:44.281Z,2.60
2018-09-11T09:45:14.897Z,2.20
2018-09-11T09:47:45.021Z,2.33
2018-09-11T09:50:18.148Z,2.57
2018-09-11T09:52:48.032Z,2.40
2018-09-11T09:55:19.708Z,2.80
2018-09-11T09:57:49.538Z,2.70
2018-09-11T10:00:25.483Z,2.83
2018-09-11T10:02:56.517Z,2.40
2018-09-11T10:05:28.508Z,2.53
2018-09-11T10:07:58.960Z,2.50
2018-09-11T10:10:28.731Z,2.60
2018-09-11T10:12:58.885Z,2.53
2018-09-11T10:15:29.785Z,2.63
2018-09-11T10:18:00.169Z,2.93
2018-09-11T10:20:30.910Z,2.57
2018-09-11T10:23:02.751Z,3.37
2018-09-11T10:25:32.956Z,2.90
2018-09-11T10:28:06.433Z,2.93
2018-09-11T10:30:39.070Z,3.17
2018-09-11T10:33:08.784Z,2.70
2018-09-11T10:35:39.944Z,2.60
2018-09-11T10:38:12.651Z,3.43
2018-09-11T10:40:43.504Z,2.90
2018-09-11T10:43:14.379Z,3.23
2018-09-11T10:45:44.241Z,3.17
2018-09-11T10:48:13.847Z,3.10
2018-09-11T10:50:45.189Z,2.80
2018-09-11T10:53:15.128Z,2.70
2018-09-11T10:55:45.997Z,2.73
2018-09-11T10:58:16.414Z,2.77
2018-09-11T11:00:46.396Z,3.30
2018-09-11T11:03:21.320Z,2.80
2018-09-11T11:05:51.111Z,2.83
2018-09-11T11:08:21.327Z,2.90
2018-09-11T11:10:51.741Z,3.00
2018-09-11T11:13:22.833Z,2.80
2018-09-11T11:15:52.738Z,3.03
2018-09-11T11:21:21.819Z,3.10
2018-09-11T11:23:51.798Z,2.77
2018-09-11T11:26:28.851Z,2.80
2018-09-11T11:29:10.755Z,2.90
2018-09-11T11:31:51.158Z,3.03
2018-09-11T11:34:25.206Z,2.33
2018-09-11T11:36:56.507Z,2.83
2018-09-11T11:39:32.806Z,2.93
2018-09-11T11:42:04.223Z,2.60
2018-09-11T11:44:44.697Z,2.90
2018-09-11T11:50:10.548Z,2.90
2018-09-11T11:53:22.633Z,2.40
2018-09-11T11:56:00.770Z,2.77
2018-09-11T11:59:03.741Z,2.60
2018-09-11T12:01:37.551Z,2.53
2018-09-11T12:04:15.279Z,2.73
2018-09-11T12:06:46.352Z,2.90
2018-09-11T12:09:23.119Z,2.73
2018-09-11T12:11:54.138Z,2.80
2018-09-11T12:30:04.777Z,2.83
2018-09-11T13:15:25.928Z,2.50
2018-09-11T14:03:50.295Z,2.73
2018-09-11T14:06:23.315Z,3.07
2018-09-11T14:08:56.886Z,2.47
2018-09-11T14:11:29.243Z,2.10
2018-09-11T14:14:00.608Z,2.70
2018-09-11T14:16:31.683Z,2.63
2018-09-11T14:19:13.805Z,2.50
2018-09-11T14:21:46.977Z,2.57
2018-09-11T14:24:19.085Z,2.63
2018-09-11T14:26:53.725Z,2.60
2018-09-11T14:29:26.567Z,2.57
2018-09-11T14:58:20.032Z,2.60
2018-09-11T15:00:55.253Z,2.63
2018-09-11T15:03:27.461Z,2.87
2018-09-11T15:23:25.171Z,3.10
2018-09-11T15:25:59.015Z,2.80
2018-09-11T15:28:34.154Z,2.93
2018-09-11T15:31:17.463Z,2.87
2018-09-11T15:33:54.426Z,2.60
2018-09-11T15:41:42.627Z,2.87
2018-09-11T15:44:14.638Z,3.20
2018-09-11T15:46:46.397Z,2.70
2018-09-11T15:49:28.348Z,2.60
2018-09-11T15:52:00.233Z,2.70
2018-09-11T15:54:31.752Z,2.33
2018-09-11T15:57:04.410Z,2.77
2018-09-11T15:59:38.545Z,2.40
2018-09-11T16:02:11.891Z,3.30
2018-09-11T16:07:31.301Z,2.83
2018-09-11T16:10:01.675Z,2.50
2018-09-11T16:12:41.185Z,2.73
2018-09-11T16:15:12.467Z,3.07
2018-09-11T16:17:47.070Z,2.57
2018-09-11T16:20:18.131Z,2.70
2018-09-11T16:22:48.255Z,2.90
2018-09-11T16:25:18.230Z,2.37
2018-09-11T16:27:49.217Z,2.77
2018-09-11T16:30:20.447Z,2.27
2018-09-11T16:38:58.320Z,2.80
2018-09-11T16:41:32.469Z,2.70
2018-09-11T16:46:46.119Z,2.70
2018-09-11T16:49:24.765Z,2.90
2018-09-11T16:51:56.540Z,2.73
2018-09-11T16:54:30.616Z,3.57
2018-09-11T16:57:06.655Z,3.70
2018-09-11T16:59:51.530Z,2.90
2018-09-11T17:02:24.289Z,2.83
2018-09-11T17:05:12.381Z,3.10
2018-09-11T17:07:44.168Z,3.30
2018-09-11T17:10:14.776Z,3.00
2018-09-11T17:12:47.099Z,3.00
2018-09-11T17:15:31.181Z,3.57
2018-09-11T17:18:01.423Z,3.10
2018-09-11T17:20:32.664Z,3.30
2018-09-11T17:23:02.848Z,3.27
2018-09-11T17:25:37.423Z,3.13
2018-09-11T17:28:44.028Z,3.60
2018-09-11T17:31:17.664Z,3.40
2018-09-11T17:34:02.027Z,3.50
2018-09-11T17:36:36.616Z,3.70
2018-09-11T18:09:52.093Z,3.87
2018-09-11T18:12:42.771Z,3.73
2018-09-11T18:15:17.081Z,3.93
2018-09-11T18:17:54.203Z,3.33
2018-09-11T18:20:26.444Z,3.73
2018-09-11T18:25:51.533Z,3.40
2018-09-11T18:28:23.354Z,3.33
2018-09-11T18:30:59.095Z,3.70
2018-09-11T18:33:37.521Z,4.17
2018-09-11T18:36:22.967Z,4.17
2018-09-11T18:41:49.098Z,4.33
2018-09-11T18:47:25.270Z,4.10
2018-09-11T18:49:56.103Z,4.43
2018-09-11T18:52:29.164Z,4.70
2018-09-11T18:55:11.107Z,4.80
2018-09-11T18:57:47.087Z,4.60
2018-09-11T19:00:45.009Z,4.40
2018-09-11T19:06:17.219Z,3.53
2018-09-11T19:08:54.632Z,3.50
2018-09-11T19:11:29.196Z,3.97
2018-09-11T19:14:13.817Z,3.70
2018-09-11T19:16:46.248Z,4.03
2018-09-11T19:22:42.981Z,3.57
2018-09-11T19:25:28.216Z,3.77
2018-09-11T19:28:22.493Z,4.13
2018-09-11T19:31:02.529Z,3.80
2018-09-11T19:33:42.034Z,4.10
2018-09-11T19:36:17.117Z,3.63
2018-09-11T19:56:14.075Z,4.00
2018-09-11T19:58:52.623Z,3.93
2018-09-11T20:01:27.996Z,3.93
2018-09-11T20:04:07.431Z,4.10
2018-09-11T20:06:40.259Z,4.20
2018-09-11T20:09:18.659Z,3.87
2018-09-11T20:17:22.634Z,3.87
2018-09-11T20:25:52.281Z,4.03
2018-09-11T20:28:25.760Z,4.03
2018-09-11T20:35:17.296Z,3.93
2018-09-11T20:37:51.691Z,4.63
2018-09-11T20:40:24.539Z,4.37
2018-09-11T20:43:04.548Z,4.50
2018-09-11T20:45:38.898Z,4.30
2018-09-11T20:51:21.218Z,5.00
2018-09-11T20:59:19.357Z,4.87
2018-09-11T21:53:56.846Z,4.27
2018-09-11T21:56:29.959Z,4.77
2018-09-11T21:59:03.291Z,4.60
2018-09-11T22:04:17.461Z,5.00
2018-09-11T22:07:00.501Z,5.67
2018-09-11T22:09:31.305Z,5.00
2018-09-11T22:12:19.377Z,5.07
2018-09-11T22:14:52.385Z,4.50
2018-09-11T22:17:23.337Z,5.27
2018-09-11T22:19:58.890Z,5.47
2018-09-11T22:22:29.048Z,5.40
2018-09-11T22:27:52.548Z,5.10
2018-09-11T22:30:34.182Z,5.63
2018-09-11T22:58:24.165Z,4.60
2018-09-11T23:04:00.398Z,4.67
2018-09-11T23:06:30.948Z,5.13
2018-09-11T23:21:46.243Z,5.27
2018-09-11T23:27:20.626Z,4.37
2018-09-11T23:29:53.459Z,5.40
2018-09-11T23:32:23.755Z,4.90
2018-09-11T23:37:49.208Z,4.47
2018-09-11T23:40:20.618Z,4.50
2018-09-11T23:42:51.049Z,4.33
2018-09-11T23:45:25.010Z,4.37
2018-09-11T23:47:55.533Z,4.57
2018-09-11T23:53:24.958Z,4.77
2018-09-11T23:55:56.448Z,4.93
2018-09-11T23:58:26.549Z,4.80
